Time;durP1;ratioP1;P1;durP2;ratioP2;P2;SDS_P1;SDS_P2;PMS_P1;PMS_P2;Temp;Humidity;BMP_temperature;BMP_pressure;BME280_temperature;BME280_humidity;BME280_pressure;Samples;Min_cycle;Max_cycle;Signal;HPM_P1;HPM_P2
2023/05/16 00:00:06;;;;;;;21.25;19.60;;;;;;;13.57;67.95;99536.63;4964930;28;97452;-73
2023/05/16 00:02:31;;;;;;;23.40;21.60;;;;;;;13.53;68.32;99548.28;4952106;28;96850;-73
2023/05/16 00:04:57;;;;;;;22.67;21.05;;;;;;;13.48;68.49;99547.72;4973258;28;97335;-74
2023/05/16 00:07:22;;;;;;;23.65;21.58;;;;;;;13.31;68.72;99525.78;4940421;28;98240;-74
2023/05/16 00:09:48;;;;;;;23.75;22.00;;;;;;;13.46;68.52;99545.16;4957195;28;97707;-74
2023/05/16 00:15:55;;;;;;;22.88;21.27;;;;;;;13.42;69.02;99548.91;4979810;28;98018;-74
2023/05/16 00:18:21;;;;;;;23.23;21.38;;;;;;;13.28;69.10;99533.88;4973399;28;97266;-74
2023/05/16 00:20:51;;;;;;;23.75;21.67;;;;;;;13.34;69.06;99559.88;4952886;28;98139;-76
2023/05/16 00:23:16;;;;;;;24.92;22.58;;;;;;;13.27;69.65;99558.56;4956886;28;98336;-74
2023/05/16 00:25:42;;;;;;;23.77;21.88;;;;;;;13.20;69.85;99557.16;4939953;28;96952;-74
2023/05/16 00:28:07;;;;;;;23.40;21.15;;;;;;;13.19;69.75;99555.47;4973534;28;96947;-74
2023/05/16 00:30:34;;;;;;;24.77;22.75;;;;;;;13.18;69.89;99558.16;4956118;28;100997;-74
2023/05/16 00:32:59;;;;;;;24.17;22.23;;;;;;;13.03;70.41;99554.63;4948637;28;101737;-74
2023/05/16 00:35:25;;;;;;;24.25;22.30;;;;;;;13.10;70.47;99556.84;4956519;28;97223;-74
2023/05/16 00:37:51;;;;;;;22.75;21.15;;;;;;;13.09;70.17;99564.84;4973729;28;97008;-75
2023/05/16 00:40:17;;;;;;;25.27;23.38;;;;;;;13.00;70.48;99566.22;4934945;28;101452;-74
2023/05/16 00:42:43;;;;;;;23.73;21.88;;;;;;;12.99;70.43;99566.28;4940352;28;101297;-74
2023/05/16 00:45:09;;;;;;;23.85;22.08;;;;;;;12.86;71.29;99553.78;4955751;28;97040;-74
2023/05/16 00:47:35;;;;;;;23.95;21.95;;;;;;;13.09;70.29;99556.94;4961421;28;96906;-74
2023/05/16 00:50:02;;;;;;;23.73;21.88;;;;;;;13.14;69.53;99566.25;4939418;28;101480;-75
2023/05/16 00:52:27;;;;;;;24.65;22.50;;;;;;;13.11;69.91;99565.59;4947817;28;98976;-74
2023/05/16 00:54:53;;;;;;;24.25;22.35;;;;;;;13.13;69.63;99563.72;4953964;28;98591;-76
2023/05/16 00:57:19;;;;;;;24.45;22.40;;;;;;;13.00;69.80;99541.63;4939843;28;97216;-74
2023/05/16 00:59:46;;;;;;;25.20;22.85;;;;;;;12.97;70.33;99555.81;4939903;28;100862;-74
2023/05/16 01:02:12;;;;;;;24.75;22.75;;;;;;;13.06;70.09;99565.84;4952453;28;97864;-75
2023/05/16 01:04:39;;;;;;;25.35;23.33;;;;;;;13.18;69.84;99577.50;4935917;28;97348;-75
2023/05/16 01:07:05;;;;;;;25.05;22.70;;;;;;;13.10;69.97;99577.06;4971264;28;96908;-74
2023/05/16 01:09:33;;;;;;;23.55;21.83;;;;;;;12.99;70.25;99572.38;4972085;28;101643;-74
2023/05/16 01:12:20;;;;;;;24.60;22.70;;;;;;;13.00;70.20;99574.13;4955079;28;97491;-75
2023/05/16 01:15:21;;;;;;;23.30;21.60;;;;;;;12.94;70.17;99584.97;4956553;28;97319;-74
2023/05/16 01:18:00;;;;;;;24.50;22.55;;;;;;;12.81;70.93;99581.31;4949139;28;97001;-74
2023/05/16 01:20:33;;;;;;;24.90;22.85;;;;;;;12.70;71.32;99587.16;4939210;28;101375;-75
2023/05/16 01:23:30;;;;;;;24.05;21.90;;;;;;;12.87;70.83;99583.63;4946725;28;101888;-75
2023/05/16 01:26:21;;;;;;;24.60;22.50;;;;;;;12.88;70.58;99586.16;4952325;28;97401;-75
2023/05/16 01:28:47;;;;;;;24.10;22.40;;;;;;;12.89;70.73;99587.03;4973206;28;97215;-74
2023/05/16 01:31:13;;;;;;;21.90;20.35;;;;;;;12.94;70.59;99587.59;4955022;28;101199;-74
2023/05/16 01:33:39;;;;;;;25.65;23.70;;;;;;;12.81;70.30;99589.22;4952701;28;101388;-75
2023/05/16 01:36:16;;;;;;;24.52;22.52;;;;;;;12.87;70.39;99595.00;4951395;28;97409;-75
2023/05/16 01:38:56;;;;;;;24.95;23.15;;;;;;;12.54;71.50;99576.63;4956536;28;98083;-75
2023/05/16 01:41:41;;;;;;;23.65;21.58;;;;;;;12.60;72.02;99601.78;4939195;28;101240;-74
2023/05/16 01:44:34;;;;;;;24.95;22.85;;;;;;;12.43;72.38;99610.56;4955050;28;101325;-75
2023/05/16 01:47:02;;;;;;;25.60;23.50;;;;;;;12.51;72.09;99610.13;4936537;28;97468;-74
2023/05/16 01:49:50;;;;;;;25.33;23.35;;;;;;;12.50;72.42;99609.28;4969253;28;96948;-74
2023/05/16 01:52:24;;;;;;;24.10;22.20;;;;;;;12.42;72.36;99612.34;4951795;28;97999;-74
2023/05/16 01:54:52;;;;;;;24.90;23.00;;;;;;;12.50;71.91;99619.81;4938155;28;100596;-74
2023/05/16 01:57:19;;;;;;;26.35;24.05;;;;;;;12.50;71.90;99616.34;4955085;28;97309;-75
2023/05/16 01:59:44;;;;;;;24.35;22.40;;;;;;;12.51;71.37;99615.41;4939568;28;96845;-74
2023/05/16 02:02:10;;;;;;;24.45;22.40;;;;;;;12.59;71.37;99614.06;4937914;28;101473;-74
2023/05/16 02:04:37;;;;;;;25.58;23.58;;;;;;;12.61;71.61;99614.84;4956462;28;101556;-75
2023/05/16 02:07:02;;;;;;;23.70;21.67;;;;;;;12.64;71.06;99621.72;4957131;28;97061;-75
2023/05/16 02:09:28;;;;;;;24.83;22.92;;;;;;;12.68;70.89;99620.63;4950184;28;96964;-74
2023/05/16 02:11:53;;;;;;;24.92;22.83;;;;;;;12.68;71.05;99637.28;4954747;28;101548;-75
2023/05/16 02:14:19;;;;;;;23.80;21.63;;;;;;;12.75;70.92;99626.44;4955045;28;101225;-75
2023/05/16 02:16:45;;;;;;;24.95;22.80;;;;;;;12.80;70.56;99630.53;4938603;28;96861;-75
2023/05/16 02:19:10;;;;;;;24.95;23.05;;;;;;;12.75;70.46;99621.16;4955561;28;97416;-74
2023/05/16 02:21:37;;;;;;;22.52;20.85;;;;;;;12.59;70.55;99600.06;4963446;28;98054;-74
2023/05/16 02:24:04;;;;;;;24.83;22.33;;;;;;;12.78;70.23;99627.09;4954694;28;101386;-74
2023/05/16 02:26:29;;;;;;;24.45;22.25;;;;;;;12.91;69.81;99624.66;4962845;28;97263;-74
2023/05/16 02:28:55;;;;;;;22.75;21.15;;;;;;;12.90;69.85;99621.16;4955409;28;97322;-76
2023/05/16 02:31:31;;;;;;;23.67;21.88;;;;;;;12.94;69.90;99621.84;4959103;28;101984;-75
2023/05/16 02:33:57;;;;;;;25.00;22.98;;;;;;;12.92;69.61;99623.72;4934384;28;100839;-75
2023/05/16 02:36:23;;;;;;;24.13;22.33;;;;;;;12.92;69.71;99629.00;4938598;28;97224;-74
2023/05/16 02:38:49;;;;;;;24.30;22.20;;;;;;;12.78;69.47;99610.47;4955182;28;97009;-74
2023/05/16 02:41:14;;;;;;;24.30;22.33;;;;;;;12.73;69.25;99602.78;4937720;28;101339;-75
2023/05/16 02:43:42;;;;;;;24.85;22.67;;;;;;;12.86;69.49;99621.44;4938846;28;101573;-75
2023/05/16 02:46:22;;;;;;;24.17;22.27;;;;;;;12.75;69.49;99616.75;4952767;28;98768;-74
2023/05/16 02:48:49;;;;;;;23.95;21.90;;;;;;;12.88;69.18;99638.81;4938893;28;96806;-74
2023/05/16 02:51:16;;;;;;;23.80;21.88;;;;;;;12.84;69.16;99629.41;4953283;28;101238;-74
2023/05/16 02:53:41;;;;;;;24.20;22.00;;;;;;;12.86;69.35;99632.81;4954617;28;100757;-74
2023/05/16 02:56:09;;;;;;;24.17;22.38;;;;;;;12.88;69.39;99633.56;4953704;28;97260;-74
2023/05/16 02:58:34;;;;;;;23.40;21.60;;;;;;;12.93;68.75;99640.38;4935711;28;97544;-74
2023/05/16 03:01:00;;;;;;;25.17;22.92;;;;;;;12.86;69.09;99631.97;4932378;28;101161;-74
2023/05/16 03:03:26;;;;;;;25.30;23.40;;;;;;;12.93;69.07;99648.28;4954231;28;101207;-74
2023/05/16 03:05:51;;;;;;;24.92;23.02;;;;;;;12.91;69.22;99640.44;4969920;28;97256;-74
2023/05/16 03:08:17;;;;;;;25.02;23.13;;;;;;;12.93;68.58;99646.50;4971268;28;97589;-75
2023/05/16 03:10:43;;;;;;;25.63;23.45;;;;;;;12.87;68.90;99647.66;4970747;28;98100;-74
2023/05/16 03:13:08;;;;;;;24.58;22.38;;;;;;;12.90;68.54;99644.88;4953825;28;101484;-74
2023/05/16 03:15:34;;;;;;;24.52;22.58;;;;;;;12.86;68.00;99626.69;4950367;28;97489;-74
2023/05/16 03:17:59;;;;;;;25.48;23.38;;;;;;;12.91;68.14;99643.09;4952578;28;96929;-75
2023/05/16 03:20:25;;;;;;;24.85;22.67;;;;;;;12.84;68.34;99633.81;4970482;28;97397;-74
2023/05/16 03:22:51;;;;;;;24.25;22.08;;;;;;;12.92;68.04;99631.63;4954382;28;98128;-74
2023/05/16 03:25:16;;;;;;;24.33;22.23;;;;;;;13.04;68.31;99635.38;4965855;28;97157;-74
2023/05/16 03:27:42;;;;;;;24.17;22.00;;;;;;;13.06;68.11;99637.00;4947299;28;97457;-75
2023/05/16 03:30:08;;;;;;;23.85;21.92;;;;;;;12.98;68.10;99617.28;4937202;28;101608;-74
2023/05/16 03:32:33;;;;;;;24.13;22.13;;;;;;;13.14;68.02;99641.81;4953908;28;101549;-74
2023/05/16 03:35:00;;;;;;;23.95;21.95;;;;;;;13.10;67.49;99627.97;4937265;28;97037;-74
2023/05/16 03:37:26;;;;;;;24.58;22.70;;;;;;;13.28;67.91;99647.22;4954338;28;96902;-74
2023/05/16 03:39:51;;;;;;;23.73;21.70;;;;;;;13.39;67.78;99651.06;4937170;28;100963;-74
2023/05/16 03:42:17;;;;;;;22.63;21.02;;;;;;;13.47;67.58;99639.13;4952561;28;101204;-74
2023/05/16 03:44:43;;;;;;;24.05;22.05;;;;;;;13.63;66.95;99652.28;4954556;28;96963;-74
2023/05/16 03:47:09;;;;;;;22.05;20.25;;;;;;;13.54;66.89;99623.81;4941138;28;97610;-74
2023/05/16 03:49:35;;;;;;;22.73;20.67;;;;;;;13.77;66.47;99651.50;4971133;28;97412;-74
2023/05/16 03:52:02;;;;;;;23.40;21.27;;;;;;;13.88;66.49;99667.56;4949197;28;100633;-74
2023/05/16 03:54:28;;;;;;;23.55;21.58;;;;;;;13.93;66.21;99664.63;4951153;28;97462;-74
2023/05/16 03:56:53;;;;;;;22.83;20.85;;;;;;;13.91;66.10;99659.47;4954033;28;97089;-74
2023/05/16 03:59:19;;;;;;;25.15;22.92;;;;;;;14.06;66.21;99667.44;4953081;28;101597;-74
2023/05/16 04:01:45;;;;;;;25.17;22.88;;;;;;;14.12;65.77;99682.91;4952828;28;99718;-75
2023/05/16 04:04:11;;;;;;;24.50;22.15;;;;;;;14.14;65.55;99689.78;4952988;28;97798;-74
2023/05/16 04:06:36;;;;;;;23.08;21.20;;;;;;;14.08;65.76;99676.06;4937022;28;97229;-74
2023/05/16 04:09:02;;;;;;;25.60;23.40;;;;;;;14.06;65.61;99673.53;4936827;28;101443;-74
2023/05/16 04:11:27;;;;;;;23.85;21.75;;;;;;;14.34;65.16;99709.75;4969682;28;97475;-74
2023/05/16 04:13:53;;;;;;;23.58;21.48;;;;;;;14.46;65.03;99708.16;4970239;28;97208;-74
2023/05/16 04:16:19;;;;;;;21.48;19.70;;;;;;;14.55;64.47;99706.78;4952337;28;97624;-74
2023/05/16 04:18:45;;;;;;;23.98;22.02;;;;;;;14.59;64.32;99703.00;4953873;28;101605;-74
2023/05/16 04:21:13;;;;;;;23.88;21.65;;;;;;;14.78;63.86;99723.88;4969104;28;101339;-74
2023/05/16 04:23:40;;;;;;;22.77;20.85;;;;;;;14.97;63.59;99727.09;4971368;28;96754;-74
2023/05/16 04:26:05;;;;;;;26.55;24.38;;;;;;;15.11;63.16;99726.25;4948222;28;97147;-74
2023/05/16 04:28:31;;;;;;;25.63;23.42;;;;;;;15.19;62.67;99725.78;4942720;28;101240;-74
2023/05/16 04:30:57;;;;;;;25.95;23.60;;;;;;;15.34;62.25;99730.94;4952864;28;97788;-75
2023/05/16 04:33:23;;;;;;;24.73;22.55;;;;;;;15.48;61.99;99724.78;4936628;28;97142;-74
2023/05/16 04:35:48;;;;;;;25.52;23.58;;;;;;;15.62;61.76;99727.41;4969292;28;97260;-74
2023/05/16 04:38:14;;;;;;;25.48;23.30;;;;;;;15.82;61.32;99726.13;4955984;28;97409;-74
2023/05/16 04:40:42;;;;;;;25.13;22.70;;;;;;;15.97;61.03;99720.75;4952183;28;100758;-74
2023/05/16 04:43:08;;;;;;;23.83;21.77;;;;;;;16.19;60.47;99702.50;4953590;28;97141;-74
2023/05/16 04:45:33;;;;;;;24.58;22.48;;;;;;;16.34;60.91;99697.13;4949432;28;97061;-74
2023/05/16 04:48:00;;;;;;;26.50;23.70;;;;;;;16.32;60.54;99668.13;4941935;28;100832;-75
2023/05/16 04:50:25;;;;;;;24.42;22.45;;;;;;;16.66;60.20;99703.72;4968502;28;99085;-74
2023/05/16 04:52:51;;;;;;;23.65;21.70;;;;;;;16.82;59.88;99694.75;4965375;28;96753;-74
2023/05/16 04:55:16;;;;;;;27.75;25.67;;;;;;;17.00;59.36;99705.88;4932050;28;97093;-74
2023/05/16 04:57:42;;;;;;;22.25;20.00;;;;;;;17.19;58.72;99715.09;4943539;28;98352;-75
2023/05/16 05:00:10;;;;;;;25.67;23.73;;;;;;;17.26;58.39;99704.88;4968590;28;98342;-74
2023/05/16 05:02:37;;;;;;;22.45;20.48;;;;;;;17.43;57.89;99703.66;4969369;28;97176;-75
2023/05/16 05:05:03;;;;;;;24.58;22.20;;;;;;;17.76;57.58;99734.84;4945747;28;97521;-75
2023/05/16 05:07:29;;;;;;;24.25;21.80;;;;;;;17.83;57.07;99738.81;4945947;28;100852;-74
2023/05/16 05:09:55;;;;;;;23.40;21.58;;;;;;;18.10;56.64;99737.72;4944579;28;97843;-74
2023/05/16 05:12:21;;;;;;;22.70;21.00;;;;;;;18.35;56.15;99739.38;4962823;28;97087;-74
2023/05/16 05:14:46;;;;;;;21.58;20.00;;;;;;;18.74;55.57;99759.44;4961907;28;98175;-75
2023/05/16 05:17:12;;;;;;;21.40;19.77;;;;;;;19.17;53.64;99760.59;4934297;28;101531;-75
2023/05/16 05:19:37;;;;;;;21.92;20.20;;;;;;;19.47;53.07;99751.16;4968080;28;97364;-74
2023/05/16 05:22:03;;;;;;;22.75;20.83;;;;;;;20.01;52.11;99759.19;4953397;28;96749;-83
2023/05/16 05:24:29;;;;;;;22.65;20.90;;;;;;;20.75;50.89;99748.53;4970989;28;96808;-83
2023/05/16 05:26:54;;;;;;;22.35;20.65;;;;;;;21.54;49.56;99777.31;4941626;28;100951;-83
2023/05/16 05:29:20;;;;;;;20.65;19.10;;;;;;;21.99;48.08;99766.16;4965415;28;97777;-82
2023/05/16 05:31:46;;;;;;;21.05;19.13;;;;;;;22.80;46.66;99772.06;4935399;28;96792;-82
2023/05/16 05:34:11;;;;;;;22.23;20.17;;;;;;;23.86;44.40;99767.31;4967230;28;96840;-81
2023/05/16 05:36:37;;;;;;;22.13;20.40;;;;;;;24.92;42.11;99755.84;4957529;28;97374;-80
2023/05/16 05:39:03;;;;;;;22.15;20.08;;;;;;;26.19;40.12;99770.16;4971328;28;97192;-82
2023/05/16 05:41:28;;;;;;;22.10;20.02;;;;;;;28.59;36.07;99776.28;4972164;28;96806;-75
2023/05/16 05:43:54;;;;;;;20.33;18.92;;;;;;;30.46;33.11;99771.53;4943372;28;97226;-77
2023/05/16 05:46:19;;;;;;;21.23;19.73;;;;;;;32.20;31.01;99763.34;4942536;28;97535;-76
2023/05/16 05:48:45;;;;;;;22.35;19.33;;;;;;;33.32;28.79;99759.78;4952429;28;101240;-77
2023/05/16 05:51:13;;;;;;;21.17;19.30;;;;;;;34.02;27.79;99759.91;4947984;28;97685;-77
2023/05/16 05:53:39;;;;;;;20.13;18.17;;;;;;;34.56;27.38;99756.84;4946407;28;97860;-77
2023/05/16 05:56:05;;;;;;;20.55;18.48;;;;;;;34.70;26.97;99751.09;4966196;28;97450;-77
2023/05/16 05:58:30;;;;;;;18.55;17.15;;;;;;;34.56;26.77;99749.53;4966482;28;97553;-77
2023/05/16 06:00:56;;;;;;;19.63;18.05;;;;;;;35.13;25.96;99741.22;4970170;28;97017;-77
2023/05/16 06:03:22;;;;;;;20.55;18.60;;;;;;;35.03;26.64;99752.63;4966036;28;97302;-76
2023/05/16 06:05:47;;;;;;;20.60;18.25;;;;;;;35.66;26.05;99756.16;4931490;28;100710;-77
2023/05/16 06:08:13;;;;;;;20.85;18.80;;;;;;;36.50;24.75;99736.00;4953134;28;98008;-76
2023/05/16 06:10:39;;;;;;;20.83;18.67;;;;;;;37.24;23.93;99757.44;4960282;28;98474;-76
2023/05/16 06:13:05;;;;;;;19.60;18.10;;;;;;;38.18;23.25;99753.59;4942309;28;97276;-76
2023/05/16 06:15:30;;;;;;;19.95;18.48;;;;;;;38.80;22.66;99749.94;4978168;28;97610;-77
2023/05/16 06:17:56;;;;;;;20.58;18.55;;;;;;;39.02;22.12;99741.78;4978475;28;97427;-77
2023/05/16 06:20:22;;;;;;;20.42;18.73;;;;;;;39.51;21.73;99747.41;4940861;28;97311;-78
2023/05/16 06:22:48;;;;;;;17.77;16.27;;;;;;;39.12;21.75;99748.22;4948565;28;97236;-78
2023/05/16 06:25:13;;;;;;;19.10;17.63;;;;;;;38.24;23.02;99758.88;4928856;28;101115;-78
2023/05/16 06:27:39;;;;;;;19.50;17.75;;;;;;;38.46;22.42;99756.28;4956914;28;101626;-78
2023/05/16 06:30:05;;;;;;;19.65;17.90;;;;;;;38.51;22.23;99763.75;4930123;28;97363;-78
2023/05/16 06:32:31;;;;;;;21.20;19.52;;;;;;;38.32;22.24;99765.88;4953234;28;97006;-78
2023/05/16 06:34:56;;;;;;;19.40;17.85;;;;;;;38.92;22.01;99772.63;4953328;28;101118;-78
2023/05/16 06:37:22;;;;;;;19.88;18.10;;;;;;;38.99;21.59;99765.06;4957101;28;98108;-78
2023/05/16 06:39:48;;;;;;;20.00;18.38;;;;;;;38.84;21.52;99762.91;4946010;28;96764;-78
2023/05/16 06:42:13;;;;;;;20.08;18.15;;;;;;;38.73;22.08;99756.44;4950603;28;96879;-78
2023/05/16 06:44:40;;;;;;;19.20;17.83;;;;;;;39.55;21.15;99745.78;4971041;28;97337;-81
2023/05/16 06:47:05;;;;;;;19.40;17.90;;;;;;;39.11;22.03;99770.44;4955560;28;98786;-81
2023/05/16 06:49:31;;;;;;;20.55;18.50;;;;;;;39.11;22.09;99774.03;4971115;28;96834;-82
2023/05/16 06:51:57;;;;;;;18.95;17.65;;;;;;;38.65;22.10;99783.44;4938799;28;98067;-82
2023/05/16 06:54:22;;;;;;;19.42;17.98;;;;;;;37.83;22.99;99790.16;4969764;28;97562;-81
2023/05/16 06:56:48;;;;;;;20.58;18.05;;;;;;;38.01;22.91;99786.41;4954211;28;101079;-81
2023/05/16 06:59:13;;;;;;;19.75;18.45;;;;;;;40.22;20.51;99781.16;4960297;28;97364;-82
2023/05/16 07:01:40;;;;;;;20.35;18.88;;;;;;;41.18;20.21;99784.94;4955124;28;97522;-82
2023/05/16 07:04:05;;;;;;;20.52;19.05;;;;;;;42.00;19.23;99786.13;4938163;28;101064;-84
2023/05/16 07:06:31;;;;;;;20.10;18.52;;;;;;;42.15;19.26;99787.25;4972916;28;98231;-82
2023/05/16 07:08:56;;;;;;;20.63;18.85;;;;;;;42.81;18.85;99776.28;4951145;28;97534;-83
2023/05/16 07:11:22;;;;;;;20.73;18.98;;;;;;;43.32;18.42;99787.22;4947803;28;96971;-84
2023/05/16 07:13:47;;;;;;;20.10;18.50;;;;;;;45.51;16.63;99778.34;4947417;28;101681;-83
2023/05/16 07:16:13;;;;;;;19.63;17.98;;;;;;;45.52;16.45;99760.59;4958476;28;97657;-83
2023/05/16 07:18:38;;;;;;;19.20;17.70;;;;;;;46.20;16.34;99767.66;4952626;28;96758;-83
2023/05/16 07:21:04;;;;;;;20.67;18.85;;;;;;;45.03;16.82;99749.81;4951375;28;97754;-84
2023/05/16 07:23:30;;;;;;;19.42;17.98;;;;;;;44.80;17.32;99762.50;4971616;28;100976;-83
2023/05/16 07:25:55;;;;;;;19.98;18.30;;;;;;;44.72;17.30;99759.25;4957196;28;102050;-83
2023/05/16 07:28:22;;;;;;;19.98;18.30;;;;;;;42.17;18.76;99763.00;4953970;28;97149;-84
2023/05/16 07:30:47;;;;;;;20.30;18.70;;;;;;;43.88;17.71;99755.75;4942300;28;97007;-77
2023/05/16 07:33:13;;;;;;;19.15;17.38;;;;;;;44.98;17.15;99753.47;4969643;28;97500;-77
2023/05/16 07:35:39;;;;;;;19.92;18.42;;;;;;;43.92;18.12;99765.09;4961721;28;97737;-76
2023/05/16 07:38:04;;;;;;;19.30;18.00;;;;;;;40.74;20.21;99757.69;4953842;28;96759;-76
2023/05/16 07:40:30;;;;;;;20.23;18.63;;;;;;;38.30;22.48;99756.25;4969857;28;96905;-76
2023/05/16 07:42:55;;;;;;;19.95;18.20;;;;;;;36.91;24.43;99768.97;4969754;28;97434;-76
2023/05/16 07:45:21;;;;;;;19.23;17.52;;;;;;;37.50;23.71;99779.91;4951052;28;101306;-76
2023/05/16 07:47:46;;;;;;;20.30;18.80;;;;;;;40.14;21.08;99773.34;4972627;28;97254;-76
2023/05/16 07:50:12;;;;;;;19.80;18.20;;;;;;;41.27;20.11;99775.09;4949869;28;96963;-76
2023/05/16 07:52:38;;;;;;;18.88;17.38;;;;;;;41.76;19.22;99768.41;4968627;28;97499;-75
2023/05/16 07:55:04;;;;;;;18.65;17.17;;;;;;;38.06;23.23;99778.31;4954008;28;100850;-76
2023/05/16 07:57:29;;;;;;;19.48;17.85;;;;;;;34.77;26.83;99772.81;4960297;28;97309;-76
2023/05/16 07:59:55;;;;;;;19.77;17.92;;;;;;;34.55;27.00;99785.16;4949919;28;97199;-76
2023/05/16 08:02:23;;;;;;;17.92;16.63;;;;;;;39.70;21.70;99795.38;4955718;28;97561;-76
2023/05/16 08:04:49;;;;;;;18.83;17.10;;;;;;;37.23;23.69;99796.81;4932345;28;100958;-76
2023/05/16 08:07:14;;;;;;;18.25;16.63;;;;;;;33.94;26.78;99798.25;4950801;28;98029;-75
2023/05/16 08:09:40;;;;;;;18.42;17.10;;;;;;;37.80;22.84;99790.66;4964791;28;97391;-76
2023/05/16 08:12:06;;;;;;;19.40;17.90;;;;;;;42.25;19.23;99810.16;4965996;28;98599;-76
2023/05/16 08:14:32;;;;;;;20.38;18.67;;;;;;;44.34;17.73;99793.34;4965465;28;97896;-78
2023/05/16 08:17:00;;;;;;;19.58;17.77;;;;;;;40.60;20.24;99795.78;4922980;28;97248;-79
2023/05/16 08:19:26;;;;;;;19.55;18.05;;;;;;;35.69;24.80;99797.47;4964062;28;97184;-79
2023/05/16 08:21:51;;;;;;;18.30;17.10;;;;;;;33.05;27.99;99807.94;4964329;28;98226;-78
2023/05/16 08:24:17;;;;;;;19.08;17.63;;;;;;;31.30;30.08;99819.47;4945369;28;100865;-77
2023/05/16 08:26:42;;;;;;;19.40;17.90;;;;;;;36.26;24.54;99819.00;4943327;28;97142;-75
2023/05/16 08:29:08;;;;;;;20.27;18.40;;;;;;;42.23;19.04;99823.38;4945941;28;97477;-75
2023/05/16 08:31:35;;;;;;;18.58;16.88;;;;;;;37.65;23.05;99829.50;4927872;28;99189;-76
2023/05/16 08:34:00;;;;;;;19.38;17.38;;;;;;;33.62;27.30;99821.00;4963958;28;101026;-76
2023/05/16 08:36:27;;;;;;;19.98;18.08;;;;;;;31.45;30.34;99841.94;4957818;28;97179;-75
2023/05/16 08:38:52;;;;;;;21.25;18.65;;;;;;;31.51;30.58;99833.00;4961778;28;97416;-76
2023/05/16 08:41:18;;;;;;;20.38;18.48;;;;;;;32.77;28.82;99838.03;4961321;28;97401;-76
2023/05/16 08:43:43;;;;;;;21.05;19.25;;;;;;;31.75;29.93;99839.78;4958666;28;98001;-76
2023/05/16 08:46:09;;;;;;;26.02;19.20;;;;;;;36.19;24.93;99824.56;4949496;28;97336;-76
2023/05/16 08:48:36;;;;;;;18.10;16.90;;;;;;;37.06;24.37;99823.22;4957384;28;97154;-76
2023/05/16 08:51:02;;;;;;;19.17;17.35;;;;;;;33.83;26.86;99845.19;4948306;28;99636;-76
2023/05/16 08:53:39;;;;;;;18.42;16.95;;;;;;;33.46;28.00;99854.94;4945561;28;101169;-76
2023/05/16 08:56:06;;;;;;;18.33;17.02;;;;;;;31.92;29.52;99847.63;4948052;28;97491;-76
2023/05/16 08:58:31;;;;;;;18.60;17.08;;;;;;;32.09;29.50;99861.69;4950568;28;97219;-76
2023/05/16 09:00:57;;;;;;;20.20;18.40;;;;;;;32.90;28.77;99869.78;4949693;28;101138;-76
2023/05/16 09:03:24;;;;;;;20.10;18.50;;;;;;;33.11;28.56;99866.06;4965607;28;97969;-76
2023/05/16 09:05:49;;;;;;;18.38;17.13;;;;;;;32.16;29.30;99865.25;4952322;28;97552;-76
2023/05/16 09:08:15;;;;;;;18.52;17.08;;;;;;;31.46;29.88;99843.59;4957972;28;98314;-76
2023/05/16 09:10:40;;;;;;;17.70;16.35;;;;;;;30.66;30.83;99869.19;4951125;28;100782;-76
2023/05/16 09:13:06;;;;;;;19.08;17.10;;;;;;;30.12;31.66;99883.16;4984580;28;97337;-76
2023/05/16 09:15:33;;;;;;;19.20;17.60;;;;;;;29.34;32.42;99870.00;4968143;28;96890;-76
2023/05/16 09:18:01;;;;;;;18.55;17.30;;;;;;;28.82;33.45;99888.84;4953559;28;97168;-75
2023/05/16 09:20:27;;;;;;;19.10;17.40;;;;;;;28.77;33.39;99884.00;4970818;28;97699;-73
2023/05/16 09:22:57;;;;;;;19.13;17.23;;;;;;;29.29;33.40;99890.47;4939109;28;101197;-75
2023/05/16 09:25:26;;;;;;;18.77;17.23;;;;;;;29.54;32.25;99878.41;4935167;28;97594;-75
2023/05/16 09:27:55;;;;;;;18.75;17.25;;;;;;;29.52;33.02;99890.41;4953021;28;96944;-75
2023/05/16 09:30:32;;;;;;;19.70;18.00;;;;;;;28.79;34.20;99897.31;4968025;28;97669;-76
2023/05/16 09:32:58;;;;;;;18.75;17.35;;;;;;;28.64;34.34;99900.78;4954235;28;97498;-75
2023/05/16 09:35:23;;;;;;;19.23;17.52;;;;;;;28.08;34.81;99908.16;4985038;28;97165;-76
2023/05/16 09:37:52;;;;;;;18.20;16.52;;;;;;;27.65;34.95;99912.16;4937074;28;97322;-78
2023/05/16 09:40:22;;;;;;;17.23;16.02;;;;;;;27.26;35.54;99910.22;4971890;28;97585;-78
2023/05/16 09:43:02;;;;;;;17.67;16.10;;;;;;;27.46;34.80;99927.72;4962589;28;98091;-75
2023/05/16 09:45:27;;;;;;;17.35;15.80;;;;;;;27.59;35.07;99918.25;4952573;28;97437;-75
2023/05/16 09:47:53;;;;;;;17.63;16.13;;;;;;;28.20;34.09;99925.66;4935838;28;97596;-75
2023/05/16 09:50:19;;;;;;;17.38;16.13;;;;;;;27.80;34.89;99906.94;4960286;28;97739;-76
2023/05/16 09:52:44;;;;;;;17.27;16.15;;;;;;;27.89;34.68;99933.69;4967180;28;97186;-75
2023/05/16 09:55:10;;;;;;;17.23;15.65;;;;;;;27.95;34.60;99932.97;4947111;28;97427;-73
2023/05/16 09:57:39;;;;;;;18.90;16.92;;;;;;;27.92;34.76;99937.91;4959963;28;97372;-75
2023/05/16 10:00:10;;;;;;;18.25;16.45;;;;;;;27.81;34.72;99944.53;4979638;28;97490;-75
2023/05/16 10:02:38;;;;;;;17.83;16.42;;;;;;;27.15;36.81;99942.84;4949809;28;97942;-75
2023/05/16 10:05:04;;;;;;;18.05;16.55;;;;;;;27.69;34.85;99949.41;4947955;28;97578;-75
2023/05/16 10:07:31;;;;;;;17.75;16.25;;;;;;;27.96;33.96;99926.59;4965168;28;97528;-75
2023/05/16 10:09:57;;;;;;;16.50;15.32;;;;;;;28.03;33.82;99939.38;4941945;28;99389;-76
2023/05/16 10:12:28;;;;;;;19.10;17.63;;;;;;;27.67;36.35;99935.25;4949171;28;101077;-77
2023/05/16 10:14:54;;;;;;;18.25;16.75;;;;;;;28.09;34.07;99933.28;4950384;28;97251;-74
2023/05/16 10:17:20;;;;;;;17.63;16.35;;;;;;;28.12;34.19;99928.38;4951685;28;97569;-77
2023/05/16 10:19:46;;;;;;;17.73;16.35;;;;;;;28.19;34.17;99925.84;4961213;28;98726;-75
2023/05/16 10:22:12;;;;;;;18.73;17.10;;;;;;;27.74;34.53;99922.75;4944995;28;100725;-76
2023/05/16 10:24:52;;;;;;;18.35;17.05;;;;;;;27.75;35.74;99931.66;4966461;28;97087;-76
2023/05/16 10:27:18;;;;;;;18.93;17.27;;;;;;;27.91;34.79;99923.56;4952220;28;97309;-76
2023/05/16 10:29:44;;;;;;;18.17;16.60;;;;;;;27.77;34.78;99926.97;4966956;28;97528;-75
2023/05/16 10:32:10;;;;;;;19.10;17.50;;;;;;;27.09;35.65;99931.75;4948020;28;97328;-76
2023/05/16 10:34:37;;;;;;;18.58;17.15;;;;;;;27.26;35.77;99931.78;4949796;28;97380;-77
2023/05/16 10:37:03;;;;;;;19.77;18.17;;;;;;;27.61;35.44;99933.25;4966700;28;97243;-76
2023/05/16 10:39:29;;;;;;;20.95;19.30;;;;;;;27.71;35.24;99923.09;4953491;28;101303;-76
2023/05/16 10:41:56;;;;;;;18.70;17.30;;;;;;;28.03;35.24;99934.81;4948639;28;99170;-75
2023/05/16 10:44:21;;;;;;;19.90;18.10;;;;;;;28.32;35.11;99931.50;4952426;28;97359;-77
2023/05/16 10:46:47;;;;;;;20.70;18.40;;;;;;;28.45;35.00;99930.97;4950664;28;97435;-73
2023/05/16 10:49:24;;;;;;;19.88;18.30;;;;;;;28.42;35.19;99924.06;4968882;28;101219;-73
2023/05/16 10:52:09;;;;;;;19.25;17.58;;;;;;;28.04;35.42;99932.97;4950705;28;97961;-73
2023/05/16 10:54:40;;;;;;;21.05;19.00;;;;;;;27.85;35.94;99936.91;4986372;28;97329;-73
2023/05/16 10:57:10;;;;;;;21.45;19.55;;;;;;;27.59;36.38;99927.16;4963331;28;97378;-73
2023/05/16 10:59:45;;;;;;;21.02;18.95;;;;;;;27.77;36.10;99932.34;4965630;28;98239;-73
2023/05/16 11:02:31;;;;;;;21.20;19.60;;;;;;;27.84;36.19;99936.09;4930997;28;101069;-73
2023/05/16 11:04:59;;;;;;;21.73;20.20;;;;;;;27.86;35.93;99935.91;4950727;28;97917;-73
2023/05/16 11:07:33;;;;;;;20.35;18.90;;;;;;;27.75;36.08;99923.59;4955683;28;97447;-73
2023/05/16 11:10:06;;;;;;;20.52;18.65;;;;;;;27.68;35.95;99930.69;4955472;28;100882;-72
2023/05/16 11:12:44;;;;;;;20.40;18.90;;;;;;;27.60;36.54;99928.00;4980940;28;97203;-73
2023/05/16 11:15:20;;;;;;;20.38;18.42;;;;;;;27.59;36.63;99919.09;4950481;28;97215;-73
2023/05/16 11:17:46;;;;;;;21.42;19.58;;;;;;;27.57;37.05;99926.50;4951495;28;97483;-73